Time;durP1;ratioP1;P1;durP2;ratioP2;P2;SDS_P1;SDS_P2;PMS_P1;PMS_P2;Temp;Humidity;BMP_temperature;BMP_pressure;BME280_temperature;BME280_humidity;BME280_pressure;Samples;Min_cycle;Max_cycle;Signal;HPM_P1;HPM_P2
2023/12/14 00:03:33;;;;;;;19.17;9.52;;;;;;;6.07;100.00;100755.16;5000276;28;20525;-91
2023/12/14 00:09:59;;;;;;;19.30;9.05;;;;;;;6.14;100.00;100792.09;5000341;28;20078;-92
2023/12/14 00:19:15;;;;;;;17.75;8.43;;;;;;;6.08;100.00;100816.16;5186337;23;20058;-91
2023/12/14 00:21:41;;;;;;;18.17;8.13;;;;;;;6.01;100.00;100807.53;4979854;28;20018;-91
2023/12/14 00:31:00;;;;;;;23.75;12.63;;;;;;;5.83;100.00;100838.34;4923329;29;20047;-90
2023/12/14 00:33:56;;;;;;;23.63;12.18;;;;;;;5.78;100.00;100851.22;4922653;29;20107;-91
2023/12/14 00:36:36;;;;;;;25.40;13.25;;;;;;;5.59;100.00;100836.50;4922945;29;20113;-90
2023/12/14 00:39:26;;;;;;;26.88;14.15;;;;;;;5.50;100.00;100850.22;4940334;29;20468;-90
2023/12/14 00:41:54;;;;;;;23.50;12.13;;;;;;;5.57;100.00;100863.09;4940085;29;20031;-91
2023/12/14 00:44:19;;;;;;;23.73;11.70;;;;;;;5.67;100.00;100878.63;4940692;29;20031;-91
2023/12/14 00:46:48;;;;;;;28.57;15.27;;;;;;;5.45;100.00;100872.47;4940327;29;20027;-90
2023/12/14 00:49:34;;;;;;;28.80;15.38;;;;;;;5.41;100.00;100893.03;4962078;23;20082;-91
2023/12/14 00:55:36;;;;;;;28.30;14.18;;;;;;;5.21;100.00;100897.19;4999326;28;20069;-91
2023/12/14 00:58:49;;;;;;;29.20;14.75;;;;;;;5.15;100.00;100904.88;5026475;23;20062;-90
2023/12/14 01:01:26;;;;;;;29.08;15.02;;;;;;;4.95;100.00;100890.16;4959030;29;20061;-90
2023/12/14 01:04:13;;;;;;;28.23;13.82;;;;;;;5.04;100.00;100910.78;4939527;29;20086;-90
2023/12/14 01:06:38;;;;;;;27.20;14.23;;;;;;;4.85;100.00;100886.63;4939060;29;20034;-91
2023/12/14 01:09:04;;;;;;;27.70;14.03;;;;;;;4.84;100.00;100889.19;4939331;29;20023;-90
2023/12/14 01:15:12;;;;;;;25.58;12.50;;;;;;;4.97;100.00;100916.72;5174540;23;20055;-90
2023/12/14 01:17:41;;;;;;;25.23;12.50;;;;;;;4.87;100.00;100909.75;4977534;28;20042;-90
2023/12/14 01:20:07;;;;;;;26.17;13.77;;;;;;;4.84;100.00;100926.03;4977450;28;20027;-90
2023/12/14 01:22:46;;;;;;;24.50;12.13;;;;;;;4.82;100.00;100926.88;4977582;28;20027;-90
2023/12/14 01:25:30;;;;;;;24.92;12.40;;;;;;;4.70;100.00;100907.91;4977352;28;20023;-90
2023/12/14 01:28:00;;;;;;;22.90;11.50;;;;;;;4.81;100.00;100944.00;4977625;28;20129;-90
2023/12/14 01:37:36;;;;;;;25.17;11.68;;;;;;;4.75;100.00;100980.78;4978212;28;20045;-90
2023/12/14 01:40:16;;;;;;;24.23;11.93;;;;;;;4.69;100.00;100967.00;4977594;28;20027;-90
2023/12/14 01:42:50;;;;;;;24.65;12.23;;;;;;;4.56;100.00;100954.00;4977380;28;20034;-89
2023/12/14 01:45:21;;;;;;;22.90;11.38;;;;;;;4.58;100.00;100961.75;4977554;28;20510;-90
2023/12/14 01:47:59;;;;;;;21.98;10.40;;;;;;;4.62;100.00;100969.53;4975789;28;20034;-90
2023/12/14 01:50:36;;;;;;;23.15;11.20;;;;;;;4.74;100.00;100991.06;4976961;28;20097;-90
2023/12/14 01:53:01;;;;;;;23.60;11.60;;;;;;;4.64;100.00;100979.81;4976432;28;20027;-90
2023/12/14 01:56:24;;;;;;;23.83;12.18;;;;;;;4.67;100.00;101015.84;4977030;28;20487;-90
2023/12/14 01:59:01;;;;;;;22.92;11.70;;;;;;;4.53;100.00;100995.13;4977238;28;20035;-90
2023/12/14 02:04:56;;;;;;;21.40;10.20;;;;;;;4.67;100.00;101021.00;4976351;28;20498;-90
2023/12/14 02:07:43;;;;;;;23.35;11.73;;;;;;;4.70;100.00;101031.31;4976921;28;20023;-90
2023/12/14 02:10:14;;;;;;;22.17;10.70;;;;;;;4.67;100.00;101023.56;4976385;28;20468;-90
2023/12/14 02:13:32;;;;;;;22.42;10.48;;;;;;;4.74;100.00;101038.19;4976520;28;20030;-89
2023/12/14 02:16:16;;;;;;;23.60;11.70;;;;;;;4.64;100.00;101044.09;4970516;28;20043;-90
2023/12/14 02:18:45;;;;;;;24.40;12.50;;;;;;;4.53;100.00;101036.25;4996128;28;20052;-89
2023/12/14 02:21:18;;;;;;;22.25;10.85;;;;;;;4.59;100.00;101038.88;4995585;28;20026;-89
2023/12/14 02:23:56;;;;;;;23.23;11.52;;;;;;;4.62;100.00;101053.47;4995610;28;20018;-89
2023/12/14 02:26:37;;;;;;;24.33;11.50;;;;;;;4.67;100.00;101067.28;4995975;28;20026;-90
2023/12/14 02:29:14;;;;;;;23.83;11.93;;;;;;;4.54;100.00;101052.53;4995289;28;20550;-89
2023/12/14 02:31:42;;;;;;;24.98;12.30;;;;;;;4.54;100.00;101060.22;4995664;28;20022;-89
2023/12/14 02:34:35;;;;;;;22.38;10.68;;;;;;;4.53;100.00;101050.78;4995518;28;20028;-89
2023/12/14 02:37:19;;;;;;;20.90;9.57;;;;;;;4.55;100.00;101055.13;4994799;28;20030;-89
2023/12/14 02:40:10;;;;;;;22.77;11.23;;;;;;;4.64;100.00;101086.09;4995370;28;20113;-89
2023/12/14 02:42:47;;;;;;;24.25;11.20;;;;;;;4.52;100.00;101067.06;4994782;28;20498;-89
2023/12/14 02:45:32;;;;;;;24.90;13.15;;;;;;;4.61;100.00;101098.06;4995293;28;20106;-90
2023/12/14 02:47:58;;;;;;;26.00;13.65;;;;;;;4.52;100.00;101085.03;4995512;28;20038;-89
2023/12/14 02:50:23;;;;;;;25.83;13.23;;;;;;;4.41;100.00;101083.19;4994325;28;20364;-90
2023/12/14 02:52:49;;;;;;;25.93;12.83;;;;;;;4.44;100.00;101101.25;4995273;28;20101;-89
2023/12/14 02:55:15;;;;;;;24.73;12.25;;;;;;;4.37;100.00;101094.28;4994145;28;20141;-89
2023/12/14 02:58:04;;;;;;;25.95;13.50;;;;;;;4.40;100.00;101120.00;4995108;28;20054;-89
2023/12/14 03:00:35;;;;;;;25.73;12.95;;;;;;;4.30;100.00;101102.75;4995161;28;20037;-89
2023/12/14 03:03:00;;;;;;;24.17;12.57;;;;;;;4.40;100.00;101125.16;5149853;23;20051;-89
2023/12/14 03:05:26;;;;;;;26.48;12.80;;;;;;;4.39;100.00;101125.16;4976434;28;20035;-89
2023/12/14 03:07:51;;;;;;;26.07;13.17;;;;;;;4.37;100.00;101127.69;4976279;28;20057;-90
2023/12/14 03:10:25;;;;;;;26.35;13.15;;;;;;;4.38;100.00;101125.97;4976029;28;20030;-90
2023/12/14 03:12:51;;;;;;;24.80;12.45;;;;;;;4.39;100.00;101135.44;4976583;28;20023;-90
2023/12/14 03:15:18;;;;;;;24.30;12.47;;;;;;;4.37;100.00;101142.25;4976673;28;20026;-90
2023/12/14 03:17:43;;;;;;;24.55;12.77;;;;;;;4.34;100.00;101143.06;4976305;28;20022;-90
2023/12/14 03:27:07;;;;;;;24.40;12.05;;;;;;;4.41;100.00;101155.16;4976861;28;20085;-90
2023/12/14 03:33:09;;;;;;;25.02;12.45;;;;;;;4.36;100.00;101143.97;4976339;28;20085;-90
2023/12/14 03:36:14;;;;;;;23.88;11.98;;;;;;;4.40;100.00;101150.84;4976212;28;20531;-91
2023/12/14 03:39:08;;;;;;;22.80;11.75;;;;;;;4.37;100.00;101148.25;4975954;28;20472;-90
2023/12/14 03:46:01;;;;;;;23.88;11.93;;;;;;;4.24;100.00;101136.91;4975640;28;20078;-89
2023/12/14 03:51:51;;;;;;;22.98;11.75;;;;;;;4.38;100.00;101169.66;4976432;28;20061;-89
2023/12/14 03:54:29;;;;;;;22.52;11.10;;;;;;;4.40;100.00;101170.56;4976190;28;20026;-89
2023/12/14 03:57:00;;;;;;;24.17;12.35;;;;;;;4.44;100.00;101183.47;4957008;28;20047;-88
2023/12/14 04:05:49;;;;;;;21.30;10.85;;;;;;;4.45;100.00;101185.22;5028427;23;20053;-89
2023/12/14 04:08:17;;;;;;;22.85;11.10;;;;;;;4.38;100.00;101182.53;4975751;28;20031;-90
2023/12/14 04:10:56;;;;;;;22.80;11.63;;;;;;;4.40;100.00;101181.69;4975694;28;20138;-90
2023/12/14 04:13:43;;;;;;;22.67;10.95;;;;;;;4.46;100.00;101188.63;4979614;28;20537;-89
2023/12/14 04:16:38;;;;;;;20.98;9.98;;;;;;;4.46;100.00;101192.09;5413993;23;20538;-89
2023/12/14 04:22:10;;;;;;;18.85;8.90;;;;;;;4.46;100.00;101176.66;4918339;29;20083;-89
2023/12/14 04:25:19;;;;;;;21.42;11.20;;;;;;;4.48;100.00;101200.69;4919551;29;20033;-89
2023/12/14 04:27:56;;;;;;;22.05;11.13;;;;;;;4.38;100.00;101190.22;4919447;29;20100;-90
2023/12/14 04:37:03;;;;;;;24.50;12.38;;;;;;;4.40;100.00;101237.38;4919705;29;20046;-89
2023/12/14 04:42:49;;;;;;;23.17;11.88;;;;;;;4.34;100.00;101253.56;4919816;29;20507;-89
2023/12/14 04:49:01;;;;;;;23.52;12.07;;;;;;;4.31;100.00;101261.22;4919072;29;20051;-89
2023/12/14 04:51:27;;;;;;;23.20;11.88;;;;;;;4.22;100.00;101254.22;4919449;29;20080;-89
2023/12/14 04:54:08;;;;;;;22.70;11.73;;;;;;;4.20;100.00;101255.03;4918937;29;20040;-89
2023/12/14 04:56:48;;;;;;;22.08;11.32;;;;;;;4.16;100.00;101254.09;4919321;29;20059;-90
2023/12/14 05:03:00;;;;;;;21.42;10.80;;;;;;;4.34;100.00;101286.97;4919303;29;20173;-89
2023/12/14 05:08:51;;;;;;;24.30;12.68;;;;;;;4.30;100.00;101305.72;5242332;23;20410;-89
2023/12/14 05:11:17;;;;;;;24.05;12.93;;;;;;;4.26;100.00;101299.69;4996989;28;20027;-88
2023/12/14 05:13:42;;;;;;;23.00;11.77;;;;;;;4.31;100.00;101307.47;4997809;28;20066;-89
2023/12/14 05:16:13;;;;;;;21.38;10.85;;;;;;;4.32;100.00;101316.91;4997731;28;20033;-88
2023/12/14 05:18:39;;;;;;;20.92;11.00;;;;;;;4.33;100.00;101321.22;4996983;28;20031;-88
2023/12/14 05:21:05;;;;;;;23.93;12.80;;;;;;;4.30;100.00;101327.16;4997642;28;20103;-89
2023/12/14 05:23:45;;;;;;;23.13;12.43;;;;;;;4.27;100.00;101332.25;4994599;28;20018;-88
2023/12/14 05:26:19;;;;;;;21.75;10.73;;;;;;;4.29;100.00;101327.13;4997318;28;20030;-88
2023/12/14 05:28:57;;;;;;;21.83;10.85;;;;;;;4.25;100.00;101325.34;4995895;28;20111;-89
2023/12/14 05:31:47;;;;;;;23.33;11.77;;;;;;;4.34;100.00;101353.78;4996212;28;20110;-89
2023/12/14 05:34:29;;;;;;;23.08;11.85;;;;;;;4.18;100.00;101332.06;4996415;28;20033;-89
2023/12/14 05:37:06;;;;;;;21.75;11.05;;;;;;;4.20;100.00;101334.66;4996235;28;20042;-88
2023/12/14 05:40:18;;;;;;;20.65;10.45;;;;;;;4.37;100.00;101364.13;4996968;28;20030;-89
2023/12/14 05:43:39;;;;;;;21.05;10.57;;;;;;;4.39;100.00;101379.56;4996741;28;20066;-89
2023/12/14 05:46:05;;;;;;;21.20;10.90;;;;;;;4.26;100.00;101361.34;4997505;28;20035;-89
2023/12/14 05:48:49;;;;;;;21.35;10.35;;;;;;;4.35;100.00;101377.75;4996929;28;20027;-89
2023/12/14 05:51:33;;;;;;;21.77;10.88;;;;;;;4.24;100.00;101373.28;4995634;28;20070;-88
2023/12/14 05:54:07;;;;;;;23.70;12.32;;;;;;;4.22;100.00;101377.56;4995896;28;20022;-89
2023/12/14 05:56:37;;;;;;;23.58;12.43;;;;;;;4.30;100.00;101401.69;4994640;28;20073;-85
2023/12/14 05:59:17;;;;;;;21.98;11.50;;;;;;;4.23;100.00;101399.81;4994524;28;20034;-84
2023/12/14 06:02:01;;;;;;;21.60;10.75;;;;;;;4.23;100.00;101393.81;4994902;28;20023;-88
2023/12/14 06:04:33;;;;;;;22.85;11.40;;;;;;;4.27;100.00;101406.75;4994852;28;20110;-87
2023/12/14 06:07:46;;;;;;;22.50;11.15;;;;;;;4.39;100.00;101431.81;4995097;28;20030;-88
2023/12/14 06:10:40;;;;;;;22.88;11.95;;;;;;;4.37;100.00;101428.38;4995138;28;20038;-88
2023/12/14 06:13:12;;;;;;;22.30;11.52;;;;;;;4.23;100.00;101398.97;4994307;28;20034;-88
2023/12/14 06:16:12;;;;;;;22.15;11.73;;;;;;;4.37;100.00;101430.94;4995121;28;20034;-89
2023/12/14 06:18:53;;;;;;;21.90;10.90;;;;;;;4.34;100.00;101420.59;4959621;28;20380;-85
2023/12/14 06:21:31;;;;;;;22.77;12.10;;;;;;;4.27;100.00;101418.75;4992355;28;20129;-86
2023/12/14 06:24:06;;;;;;;22.55;11.80;;;;;;;4.28;100.00;101429.06;4994320;28;20101;-86
2023/12/14 06:26:50;;;;;;;24.80;13.23;;;;;;;4.33;100.00;101450.56;4977840;28;20067;-86
2023/12/14 06:29:34;;;;;;;23.58;12.52;;;;;;;4.23;100.00;101433.22;4974529;28;20472;-88
2023/12/14 06:32:21;;;;;;;21.33;10.82;;;;;;;4.36;100.00;101466.88;4974795;28;20042;-88
2023/12/14 06:34:46;;;;;;;22.13;11.25;;;;;;;4.25;100.00;101448.69;4974690;28;20379;-88
2023/12/14 06:37:21;;;;;;;21.83;11.52;;;;;;;4.28;100.00;101451.28;4974782;28;20019;-89
2023/12/14 06:39:55;;;;;;;20.05;9.73;;;;;;;4.34;100.00;101464.28;4975252;28;20022;-88
2023/12/14 06:42:30;;;;;;;21.42;10.88;;;;;;;4.25;100.00;101448.69;4974897;28;20089;-88
2023/12/14 06:45:10;;;;;;;21.00;10.43;;;;;;;4.28;100.00;101462.47;4940472;28;20039;-88
2023/12/14 06:47:42;;;;;;;24.15;12.70;;;;;;;4.16;100.00;101451.94;4975282;28;20109;-88
2023/12/14 06:50:14;;;;;;;23.02;12.23;;;;;;;4.13;100.00;101450.16;4952651;28;20034;-88
2023/12/14 06:52:39;;;;;;;22.98;12.15;;;;;;;4.24;100.00;101477.78;4971302;28;20044;-87
2023/12/14 06:55:26;;;;;;;20.70;11.03;;;;;;;4.30;100.00;101486.50;4950530;23;20146;-87
2023/12/14 06:58:11;;;;;;;20.88;10.38;;;;;;;4.22;100.00;101471.75;4936773;29;20087;-89
2023/12/14 07:00:55;;;;;;;18.90;9.45;;;;;;;4.35;100.00;101493.41;4936698;29;20059;-88
2023/12/14 07:03:33;;;;;;;21.35;10.75;;;;;;;4.18;100.00;101479.38;4948910;29;20075;-89
2023/12/14 07:06:21;;;;;;;;;;;;;;;;;;;;;
2023/12/14 07:09:33;;;;;;;23.23;11.23;;;;;;;4.18;100.00;101484.50;4952420;29;20031;-88
2023/12/14 07:12:20;;;;;;;21.25;10.75;;;;;;;4.35;100.00;101511.41;4956813;29;20038;-89
2023/12/14 07:14:46;;;;;;;21.20;10.38;;;;;;;4.24;100.00;101503.47;4956617;29;20066;-89
2023/12/14 07:17:36;;;;;;;25.20;12.48;;;;;;;4.26;100.00;101528.38;4955614;29;20127;-88
2023/12/14 07:20:35;;;;;;;23.45;12.15;;;;;;;4.13;100.00;101513.50;4956279;29;20059;-88
2023/12/14 07:23:12;;;;;;;25.00;12.68;;;;;;;4.09;100.00;101527.13;4897152;29;20045;-88
2023/12/14 07:29:32;;;;;;;23.15;11.57;;;;;;;4.15;100.00;101548.69;4934593;29;20074;-86
2023/12/14 07:32:16;;;;;;;23.00;11.43;;;;;;;4.18;100.00;101555.59;4935085;29;20024;-85
2023/12/14 07:35:13;;;;;;;;;;;;;;;;;;;;;
2023/12/14 07:37:57;;;;;;;23.20;11.45;;;;;;;4.08;100.00;101556.22;4913573;29;20739;-85
2023/12/14 07:40:22;;;;;;;22.83;11.68;;;;;;;4.13;100.00;101580.31;4916254;29;20027;-85
2023/12/14 07:46:19;;;;;;;22.13;10.57;;;;;;;4.08;100.00;101569.94;4932762;29;20497;-85
2023/12/14 07:48:50;;;;;;;21.50;10.80;;;;;;;4.06;100.00;101578.44;4937775;29;20440;-85
2023/12/14 07:51:16;;;;;;;24.27;11.30;;;;;;;4.10;100.00;101583.69;4918426;29;20099;-86
2023/12/14 07:54:36;;;;;;;22.52;10.88;;;;;;;4.15;100.00;101597.50;4918821;29;20052;-85
2023/12/14 07:57:02;;;;;;;21.38;10.25;;;;;;;3.99;100.00;101585.13;4920169;29;20111;-85
2023/12/14 07:59:29;;;;;;;21.38;10.20;;;;;;;4.10;100.00;101598.25;4919281;29;20119;-85
2023/12/14 08:02:16;;;;;;;21.65;10.13;;;;;;;4.00;100.00;101599.72;4885454;29;20118;-85
2023/12/14 08:04:54;;;;;;;19.98;9.20;;;;;;;4.04;100.00;101614.38;4919710;29;20111;-85
2023/12/14 08:07:32;;;;;;;20.33;9.25;;;;;;;3.98;100.00;101611.63;4918889;29;20496;-85
2023/12/14 08:10:00;;;;;;;19.63;8.90;;;;;;;4.00;100.00;101620.25;4919950;29;20028;-85
2023/12/14 08:12:41;;;;;;;20.63;9.10;;;;;;;3.96;100.00;101621.88;4918839;29;20079;-84
2023/12/14 08:15:08;;;;;;;20.58;8.80;;;;;;;3.85;100.00;101607.91;4919799;29;20036;-85
2023/12/14 08:17:39;;;;;;;18.15;8.27;;;;;;;3.84;100.00;101606.19;4919452;29;20024;-85
2023/12/14 08:20:08;;;;;;;18.42;8.25;;;;;;;3.88;100.00;101614.81;4940511;29;20488;-84
2023/12/14 08:22:52;;;;;;;18.60;8.05;;;;;;;3.91;100.00;101609.75;4943924;29;20054;-85
2023/12/14 08:25:30;;;;;;;18.92;8.57;;;;;;;4.04;100.00;101642.63;4958914;29;20083;-85
2023/12/14 08:28:11;;;;;;;18.15;8.15;;;;;;;3.97;100.00;101646.75;4956747;29;20042;-85
2023/12/14 08:30:42;;;;;;;17.38;7.53;;;;;;;4.01;100.00;101650.25;4957272;29;20388;-84
2023/12/14 08:33:23;;;;;;;16.58;7.30;;;;;;;3.96;100.00;101644.13;4957435;29;20508;-84
2023/12/14 08:35:54;;;;;;;13.88;6.63;;;;;;;4.04;100.00;101659.72;4956556;29;20110;-84
2023/12/14 08:39:09;;;;;;;19.13;8.23;;;;;;;4.12;100.00;101678.75;4956937;29;20031;-85
2023/12/14 08:42:06;;;;;;;18.63;8.70;;;;;;;3.89;100.00;101655.94;4956605;29;20032;-85
2023/12/14 08:44:44;;;;;;;19.83;9.02;;;;;;;3.90;100.00;101667.09;4957588;29;20027;-84
2023/12/14 08:47:15;;;;;;;17.88;7.55;;;;;;;3.84;100.00;101668.66;4954432;29;20159;-84
2023/12/14 08:50:00;;;;;;;18.50;8.60;;;;;;;3.79;100.00;101682.22;4938251;29;20032;-85
2023/12/14 08:52:43;;;;;;;17.20;8.40;;;;;;;3.86;100.00;101699.53;4939094;29;20495;-85
2023/12/14 08:58:49;;;;;;;17.25;8.00;;;;;;;3.90;100.00;101703.06;4999875;23;20114;-84
2023/12/14 09:01:22;;;;;;;17.30;8.57;;;;;;;3.84;100.00;101698.63;4976440;28;20055;-85
2023/12/14 09:03:48;;;;;;;18.25;8.85;;;;;;;3.86;100.00;101708.09;4975819;28;20096;-85
2023/12/14 09:06:14;;;;;;;18.17;8.15;;;;;;;3.86;100.00;101710.66;4977158;28;20038;-84
2023/12/14 09:08:40;;;;;;;18.42;8.18;;;;;;;3.83;100.00;101712.28;4977237;28;20494;-85
2023/12/14 09:11:15;;;;;;;;;;;;;;;;;;;;;
2023/12/14 09:14:02;;;;;;;16.75;8.15;;;;;;;3.82;100.00;101731.97;4920090;29;20048;-83
2023/12/14 09:16:43;;;;;;;18.90;8.73;;;;;;;3.78;100.00;101732.72;4937423;29;20035;-84
2023/12/14 09:19:24;;;;;;;19.17;9.20;;;;;;;3.71;100.00;101725.69;4996960;23;20170;-84
2023/12/14 09:22:01;;;;;;;17.13;7.93;;;;;;;3.72;100.00;101724.81;4975787;28;20073;-84
2023/12/14 09:27:25;;;;;;;15.63;7.20;;;;;;;3.91;100.00;101751.03;4960573;23;20418;-84
2023/12/14 09:31:00;;;;;;;16.13;7.50;;;;;;;3.96;100.00;101769.97;5008003;23;20429;-83
2023/12/14 09:33:09;;;;;;;15.68;6.88;;;;;;;3.93;100.00;101767.34;4948991;29;20054;-84
2023/12/14 09:35:53;;;;;;;15.18;6.95;;;;;;;3.88;100.00;101750.94;4957055;29;20114;-84
2023/12/14 09:38:40;;;;;;;15.57;7.25;;;;;;;4.08;100.00;101779.72;4956044;29;20110;-85
2023/12/14 09:41:14;;;;;;;17.45;8.27;;;;;;;3.90;100.00;101765.53;4957488;29;20062;-84
2023/12/14 09:43:45;;;;;;;16.70;8.10;;;;;;;3.93;100.00;101775.91;4957024;29;20058;-84
2023/12/14 09:46:21;;;;;;;15.70;6.93;;;;;;;4.01;100.00;101781.25;4955578;29;20035;-83
2023/12/14 09:49:01;;;;;;;14.43;6.40;;;;;;;4.07;100.00;101778.84;4955371;29;20038;-84
2023/12/14 09:51:36;;;;;;;10.75;5.53;;;;;;;4.01;100.00;101779.53;4955841;29;20023;-85
2023/12/14 09:54:04;;;;;;;12.07;6.00;;;;;;;4.12;100.00;101802.06;4957202;29;20106;-84
2023/12/14 09:57:09;;;;;;;13.73;6.15;;;;;;;3.98;100.00;101787.19;4956293;29;20114;-84
2023/12/14 10:00:00;;;;;;;17.33;8.27;;;;;;;3.91;100.00;101803.25;4955374;29;20039;-85
2023/12/14 10:02:35;;;;;;;18.13;8.43;;;;;;;3.77;100.00;101808.00;4954709;29;20093;-85
2023/12/14 10:05:00;;;;;;;19.85;9.02;;;;;;;3.74;100.00;101828.44;4955981;29;20023;-84
2023/12/14 10:10:34;;;;;;;19.90;9.05;;;;;;;3.71;100.00;101856.63;4973757;28;20057;-84
2023/12/14 10:13:02;;;;;;;18.75;8.50;;;;;;;3.71;100.00;101851.50;4974537;28;20479;-85
2023/12/14 10:15:27;;;;;;;18.92;9.05;;;;;;;3.63;100.00;101850.38;4974747;28;20039;-85
2023/12/14 10:17:54;;;;;;;18.17;8.85;;;;;;;3.62;100.00;101853.75;4973913;28;20054;-84
2023/12/14 10:23:38;;;;;;;18.70;8.13;;;;;;;3.50;100.00;101834.59;4974342;28;20034;-84
2023/12/14 10:26:58;;;;;;;17.67;7.15;;;;;;;3.57;100.00;101842.50;4974892;28;20105;-84
2023/12/14 10:29:56;;;;;;;16.55;7.22;;;;;;;3.80;100.00;101874.84;4971511;28;20046;-85
2023/12/14 10:32:59;;;;;;;15.63;7.18;;;;;;;3.72;100.00;101855.75;4955585;29;20047;-83
2023/12/14 10:35:45;;;;;;;17.60;8.18;;;;;;;3.68;100.00;101847.09;4933201;29;20548;-85
2023/12/14 10:38:11;;;;;;;16.02;7.28;;;;;;;3.87;100.00;101870.78;4933775;29;20035;-85
2023/12/14 10:40:40;;;;;;;18.77;8.35;;;;;;;3.90;100.00;101875.13;4953957;29;20399;-85
2023/12/14 10:43:19;;;;;;;17.70;7.53;;;;;;;3.77;100.00;101846.50;5165320;23;20558;-84
2023/12/14 10:46:09;;;;;;;16.25;7.13;;;;;;;3.76;100.00;101849.91;4974345;28;20035;-85
2023/12/14 10:49:11;;;;;;;16.88;7.15;;;;;;;3.83;100.00;101859.53;4954224;28;20070;-84
2023/12/14 10:52:16;;;;;;;16.88;7.47;;;;;;;3.95;100.00;101864.16;4974098;28;20042;-84
2023/12/14 10:55:13;;;;;;;14.18;6.35;;;;;;;3.96;100.00;101852.16;4972670;28;20034;-84
2023/12/14 10:58:14;;;;;;;12.00;5.55;;;;;;;4.08;100.00;101873.06;4974772;28;20031;-84
2023/12/14 11:01:01;;;;;;;15.63;6.60;;;;;;;4.20;100.00;101893.13;4974123;28;20121;-85
2023/12/14 11:03:26;;;;;;;12.65;5.43;;;;;;;4.13;100.00;101878.34;4974086;28;20403;-85
2023/12/14 11:06:38;;;;;;;12.77;5.93;;;;;;;4.27;100.00;101894.16;4974109;28;20026;-85
2023/12/14 11:09:54;;;;;;;17.35;7.50;;;;;;;4.11;100.00;101870.59;4971303;28;20039;-84
2023/12/14 11:12:21;;;;;;;17.80;7.97;;;;;;;4.18;100.00;101889.63;5137208;23;20114;-84
2023/12/14 11:14:46;;;;;;;16.20;7.13;;;;;;;4.18;100.00;101890.47;4991624;23;20062;-85
2023/12/14 11:17:13;;;;;;;17.60;7.83;;;;;;;4.21;100.00;101910.28;4973640;28;20031;-85
2023/12/14 11:19:39;;;;;;;15.55;6.50;;;;;;;4.26;100.00;101910.41;4974396;28;20031;-84
2023/12/14 11:22:04;;;;;;;15.88;7.13;;;;;;;4.31;100.00;101912.28;4978685;28;20031;-84
2023/12/14 11:24:29;;;;;;;17.50;7.78;;;;;;;4.24;100.00;101904.34;4978472;28;20113;-84
2023/12/14 11:26:54;;;;;;;15.52;7.13;;;;;;;4.30;100.00;101920.81;4976769;28;20027;-84
2023/12/14 11:29:21;;;;;;;14.50;6.40;;;;;;;4.37;100.00;101920.97;4977957;28;20491;-84
2023/12/14 11:31:47;;;;;;;16.30;6.70;;;;;;;4.37;100.00;101937.28;4977181;28;20031;-84
2023/12/14 11:34:15;;;;;;;14.88;6.85;;;;;;;4.32;100.00;101925.97;4977942;28;20085;-83
2023/12/14 11:36:45;;;;;;;15.65;7.10;;;;;;;4.40;100.00;101937.34;4958452;29;20052;-84
2023/12/14 11:39:11;;;;;;;18.83;8.30;;;;;;;4.25;100.00;101937.78;4972081;28;20039;-83
2023/12/14 11:41:38;;;;;;;16.58;7.30;;;;;;;4.35;100.00;101941.50;4978812;28;20105;-83
2023/12/14 11:44:04;;;;;;;14.82;6.43;;;;;;;4.39;100.00;101945.88;4977707;28;20031;-83
2023/12/14 11:46:30;;;;;;;13.65;6.03;;;;;;;4.40;100.00;101932.19;4966927;28;20039;-83
2023/12/14 11:48:56;;;;;;;12.20;5.53;;;;;;;4.50;100.00;101941.03;4968922;28;20031;-83
2023/12/14 11:51:26;;;;;;;11.85;5.80;;;;;;;4.53;100.00;101940.25;4977177;28;20030;-79
2023/12/14 11:53:51;;;;;;;13.73;6.25;;;;;;;4.55;100.00;101931.78;4976888;28;20180;-80
2023/12/14 11:56:18;;;;;;;12.90;5.78;;;;;;;4.63;100.00;101939.66;4977693;28;20058;-82
2023/12/14 11:58:44;;;;;;;12.20;5.43;;;;;;;4.61;100.00;101929.34;4975561;28;20090;-84
2023/12/14 12:01:21;;;;;;;15.95;6.95;;;;;;;4.68;100.00;101937.22;4976769;28;20039;-84
2023/12/14 12:03:46;;;;;;;14.32;6.45;;;;;;;4.71;100.00;101932.16;4969849;28;20155;-84
2023/12/14 12:06:30;;;;;;;16.55;7.13;;;;;;;4.69;100.00;101931.25;4959436;28;20496;-84
2023/12/14 12:08:56;;;;;;;16.00;7.50;;;;;;;4.73;100.00;101939.06;5221315;23;20046;-84
2023/12/14 12:11:23;;;;;;;13.23;6.30;;;;;;;4.79;100.00;101931.53;4996021;28;20399;-85
2023/12/14 12:13:55;;;;;;;12.82;6.22;;;;;;;4.87;100.00;101938.56;4994515;28;20023;-83
2023/12/14 12:16:31;;;;;;;10.75;5.25;;;;;;;4.91;100.00;101932.69;4997063;23;20055;-84
2023/12/14 12:18:56;;;;;;;13.73;6.22;;;;;;;4.88;100.00;101927.47;5139652;23;20665;-85
2023/12/14 12:21:21;;;;;;;13.43;6.10;;;;;;;4.81;100.00;101935.84;4977258;28;20138;-84
2023/12/14 12:23:47;;;;;;;16.38;7.45;;;;;;;4.70;100.00;101938.13;4978410;28;20372;-81
2023/12/14 12:26:18;;;;;;;15.53;7.13;;;;;;;4.71;100.00;101940.75;4977408;28;20027;-84
2023/12/14 12:28:43;;;;;;;13.20;6.20;;;;;;;4.76;100.00;101941.75;4977270;28;20030;-84
2023/12/14 12:31:08;;;;;;;12.40;5.93;;;;;;;4.83;100.00;101949.63;4977733;28;20018;-84
2023/12/14 12:33:40;;;;;;;12.50;5.53;;;;;;;4.81;100.00;101936.72;4957374;28;20442;-85
2023/12/14 12:36:15;;;;;;;10.50;5.28;;;;;;;4.80;100.00;101932.41;4977199;28;20026;-85
2023/12/14 12:38:58;;;;;;;10.02;5.03;;;;;;;4.90;100.00;101952.38;4977066;28;20023;-84
2023/12/14 12:41:29;;;;;;;10.95;5.13;;;;;;;4.87;100.00;101949.75;4976439;28;20554;-85
2023/12/14 12:44:09;;;;;;;9.57;4.70;;;;;;;4.85;100.00;101943.69;4976388;28;20027;-84
2023/12/14 12:46:35;;;;;;;9.38;5.03;;;;;;;4.85;100.00;101953.09;4976133;28;20031;-85
2023/12/14 12:49:19;;;;;;;7.57;4.10;;;;;;;4.92;100.00;101958.44;4975943;28;20027;-84
2023/12/14 12:51:53;;;;;;;7.57;4.10;;;;;;;4.94;100.00;101950.78;4976326;28;20062;-84
2023/12/14 12:54:19;;;;;;;7.93;4.07;;;;;;;4.96;100.00;101959.38;4976584;28;20126;-84
2023/12/14 12:56:53;;;;;;;9.13;4.60;;;;;;;4.92;100.00;101957.59;4976478;28;20097;-84
2023/12/14 12:59:19;;;;;;;9.70;4.40;;;;;;;5.06;100.00;101975.94;5030159;23;20058;-84
2023/12/14 13:01:45;;;;;;;9.77;4.80;;;;;;;5.07;100.00;101977.69;4975630;28;20022;-84
2023/12/14 13:04:21;;;;;;;9.38;4.60;;;;;;;5.10;100.00;101983.78;4977216;28;20050;-85
2023/12/14 13:06:50;;;;;;;7.50;4.00;;;;;;;5.16;100.00;101982.22;4976823;28;20446;-84
2023/12/14 13:09:16;;;;;;;6.72;3.88;;;;;;;5.16;100.00;101979.63;4976053;28;20023;-84
2023/12/14 13:11:42;;;;;;;5.85;3.60;;;;;;;5.17;100.00;101974.53;4976819;28;20653;-84
2023/12/14 13:14:08;;;;;;;8.35;4.22;;;;;;;5.20;100.00;101979.75;4977049;28;20582;-85
2023/12/14 13:16:40;;;;;;;9.35;4.32;;;;;;;5.20;100.00;101989.16;4976129;28;20022;-85
2023/12/14 13:19:06;;;;;;;9.07;4.57;;;;;;;5.18;100.00;101993.41;4976600;28;20495;-84
2023/12/14 13:21:33;;;;;;;8.00;4.00;;;;;;;5.17;100.00;101997.69;4976214;28;20019;-84
2023/12/14 13:23:59;;;;;;;6.88;3.72;;;;;;;5.18;100.00;102008.88;4975342;28;20118;-84
2023/12/14 13:26:24;;;;;;;6.17;3.60;;;;;;;5.17;100.00;102007.97;4976644;28;20058;-84
2023/12/14 13:28:50;;;;;;;5.78;3.40;;;;;;;5.15;100.00;102006.19;4976349;28;20031;-85
2023/12/14 13:31:34;;;;;;;5.80;3.30;;;;;;;5.10;100.00;101999.22;5007883;23;20105;-83
2023/12/14 13:34:09;;;;;;;5.20;3.30;;;;;;;5.07;100.00;101990.56;4976197;28;20023;-84
2023/12/14 13:36:34;;;;;;;4.60;3.00;;;;;;;5.12;100.00;102008.69;4975324;28;20395;-83
2023/12/14 13:39:18;;;;;;;4.63;2.90;;;;;;;5.12;100.00;102007.00;4976135;28;20019;-83
2023/12/14 13:41:43;;;;;;;4.45;2.88;;;;;;;5.18;100.00;102016.59;4975905;28;20019;-83
2023/12/14 13:44:09;;;;;;;4.40;2.73;;;;;;;5.14;100.00;102005.31;4974258;28;20077;-83
2023/12/14 13:46:34;;;;;;;3.83;2.67;;;;;;;5.22;100.00;102016.69;4976041;28;20058;-83